createdAt,value
2018-05-27T00:02:02.346Z,99.90
2018-05-27T00:04:31.177Z,99.90
2018-05-27T00:07:00.009Z,99.90
2018-05-27T00:09:28.579Z,99.90
2018-05-27T00:11:57.929Z,99.90
2018-05-27T00:14:26.567Z,99.90
2018-05-27T00:16:55.337Z,99.90
2018-05-27T00:19:24.174Z,99.90
2018-05-27T00:21:53.715Z,99.90
2018-05-27T00:24:23.182Z,99.90
2018-05-27T00:26:51.999Z,99.90
2018-05-27T00:29:20.731Z,99.90
2018-05-27T00:31:49.508Z,99.90
2018-05-27T00:34:19.133Z,99.90
2018-05-27T00:36:47.959Z,99.90
2018-05-27T00:39:17.486Z,99.90
2018-05-27T00:41:46.218Z,99.90
2018-05-27T00:44:15.997Z,99.90
2018-05-27T00:46:44.861Z,99.90
2018-05-27T00:49:13.692Z,99.90
2018-05-27T00:51:42.529Z,99.90
2018-05-27T00:54:11.868Z,99.90
2018-05-27T00:56:41.333Z,99.90
2018-05-27T00:59:10.002Z,99.90
2018-05-27T01:01:39.031Z,99.90
2018-05-27T01:04:07.987Z,99.90
2018-05-27T01:06:38.054Z,99.90
2018-05-27T01:09:07.254Z,99.90
2018-05-27T01:11:35.763Z,99.90
2018-05-27T01:14:04.529Z,99.90
2018-05-27T01:16:33.265Z,99.90
2018-05-27T01:19:01.944Z,99.90
2018-05-27T01:21:30.506Z,99.90
2018-05-27T01:23:58.997Z,99.90
2018-05-27T01:26:27.743Z,99.90
2018-05-27T01:28:56.442Z,99.90
2018-05-27T01:31:25.072Z,99.90
2018-05-27T01:33:53.655Z,99.90
2018-05-27T01:36:22.213Z,99.90
2018-05-27T01:38:52.160Z,99.90
2018-05-27T01:41:20.847Z,99.90
2018-05-27T01:43:49.569Z,99.90
2018-05-27T01:46:18.598Z,99.90
2018-05-27T01:48:47.428Z,99.90
2018-05-27T01:51:16.238Z,99.90
2018-05-27T01:53:45.061Z,99.90
2018-05-27T01:56:13.782Z,99.90
2018-05-27T01:58:42.558Z,99.90
2018-05-27T02:01:11.387Z,99.90
2018-05-27T02:03:40.027Z,99.90
2018-05-27T02:06:08.770Z,99.90
2018-05-27T02:08:37.494Z,99.90
2018-05-27T02:11:06.330Z,99.90
2018-05-27T02:13:34.906Z,99.90
2018-05-27T02:16:03.664Z,99.90
2018-05-27T02:18:32.307Z,99.90
2018-05-27T02:21:01.026Z,99.90
2018-05-27T02:23:29.897Z,99.90
2018-05-27T02:25:58.707Z,99.90
2018-05-27T02:28:27.562Z,99.90
2018-05-27T02:30:57.037Z,99.90
2018-05-27T02:33:25.475Z,99.90
2018-05-27T02:35:54.252Z,99.90
2018-05-27T02:38:23.872Z,99.90
2018-05-27T02:40:52.611Z,99.90
2018-05-27T02:43:21.342Z,99.90
2018-05-27T02:45:50.760Z,99.90
2018-05-27T02:48:19.264Z,99.90
2018-05-27T02:50:48.031Z,99.90
2018-05-27T02:53:16.864Z,99.90
2018-05-27T02:55:45.694Z,99.90
2018-05-27T02:58:14.528Z,99.90
2018-05-27T03:00:43.350Z,99.90
2018-05-27T03:03:11.856Z,99.90
2018-05-27T03:05:40.535Z,99.90
2018-05-27T03:08:09.232Z,99.90
2018-05-27T03:10:37.901Z,99.90
2018-05-27T03:13:06.733Z,99.90
2018-05-27T03:15:35.565Z,99.90
2018-05-27T03:18:04.373Z,99.90
2018-05-27T03:20:33.190Z,99.90
2018-05-27T03:23:01.865Z,99.90
2018-05-27T03:25:30.709Z,99.90
2018-05-27T03:27:59.528Z,99.90
2018-05-27T03:30:28.755Z,99.90
2018-05-27T03:32:57.486Z,99.90
2018-05-27T03:35:26.195Z,99.90
2018-05-27T03:37:55.054Z,99.90
2018-05-27T03:40:23.885Z,99.90
2018-05-27T03:42:52.651Z,99.90
2018-05-27T03:45:22.139Z,99.90
2018-05-27T03:47:50.971Z,99.90
2018-05-27T03:50:19.799Z,99.90
2018-05-27T03:52:48.523Z,99.90
2018-05-27T03:55:17.233Z,99.90
2018-05-27T03:57:45.976Z,99.90
2018-05-27T04:00:14.519Z,99.90
2018-05-27T04:02:43.372Z,99.90
2018-05-27T04:05:29.566Z,99.90
2018-05-27T04:08:15.840Z,99.90
2018-05-27T04:10:44.335Z,99.90
2018-05-27T04:13:12.910Z,99.90
2018-05-27T04:15:42.246Z,99.90
2018-05-27T04:18:10.941Z,99.90
2018-05-27T04:20:39.799Z,99.90
2018-05-27T04:23:08.635Z,99.90
2018-05-27T04:25:37.367Z,99.90
2018-05-27T04:28:05.812Z,99.90
2018-05-27T04:30:34.501Z,99.90
2018-05-27T04:35:37.905Z,99.90
2018-05-27T04:38:06.735Z,99.90
2018-05-27T04:40:35.455Z,99.90
2018-05-27T04:43:04.159Z,99.90
2018-05-27T04:45:33.035Z,99.90
2018-05-27T04:48:01.868Z,99.90
2018-05-27T04:50:30.566Z,99.90
2018-05-27T04:52:59.198Z,99.90
2018-05-27T04:55:27.898Z,99.90
2018-05-27T04:57:57.316Z,99.90
2018-05-27T05:00:26.793Z,99.90
2018-05-27T05:02:55.645Z,99.90
2018-05-27T05:05:24.143Z,99.90
2018-05-27T05:07:53.234Z,99.90
2018-05-27T05:10:22.703Z,99.90
2018-05-27T05:12:51.418Z,99.90
2018-05-27T05:15:19.989Z,99.90
2018-05-27T05:17:48.753Z,99.90
2018-05-27T05:20:18.230Z,99.90
2018-05-27T05:22:47.090Z,99.90
2018-05-27T05:25:15.920Z,99.90
2018-05-27T05:27:44.613Z,99.90
2018-05-27T05:30:13.395Z,99.90
2018-05-27T05:32:42.085Z,99.90
2018-05-27T05:35:10.775Z,99.90
2018-05-27T05:37:40.244Z,99.90
2018-05-27T05:40:09.309Z,99.90
2018-05-27T05:42:38.924Z,99.90
2018-05-27T05:45:08.495Z,99.90
2018-05-27T05:47:37.488Z,99.90
2018-05-27T05:50:07.197Z,99.90
2018-05-27T05:52:36.469Z,99.90
2018-05-27T05:55:05.500Z,99.90
2018-05-27T05:57:34.274Z,99.90
2018-05-27T06:00:02.976Z,99.90
2018-05-27T06:02:31.669Z,99.90
2018-05-27T06:05:01.022Z,99.90
2018-05-27T06:07:29.800Z,99.90
2018-05-27T06:09:58.636Z,99.90
2018-05-27T06:12:27.336Z,99.90
2018-05-27T06:14:55.959Z,99.90
2018-05-27T06:17:24.645Z,99.90
2018-05-27T06:19:53.288Z,99.90
2018-05-27T06:22:22.007Z,99.90
2018-05-27T06:24:50.646Z,99.90
2018-05-27T06:27:19.338Z,99.90
2018-05-27T06:29:48.034Z,99.90
2018-05-27T06:32:17.500Z,99.90
2018-05-27T06:34:45.970Z,99.90
2018-05-27T06:37:14.802Z,99.90
2018-05-27T06:39:43.634Z,99.90
2018-05-27T06:42:13.247Z,99.90
2018-05-27T06:44:42.091Z,99.90
2018-05-27T06:47:11.704Z,98.90
2018-05-27T06:49:40.497Z,98.80
2018-05-27T06:52:09.089Z,99.40
2018-05-27T06:54:37.783Z,99.20
2018-05-27T06:57:06.646Z,99.10
2018-05-27T06:59:35.077Z,99.00
2018-05-27T07:02:03.719Z,98.30
2018-05-27T07:04:32.473Z,97.90
2018-05-27T07:07:01.190Z,97.80
2018-05-27T07:09:30.014Z,98.00
2018-05-27T07:11:58.843Z,98.10
2018-05-27T07:14:27.677Z,98.50
2018-05-27T07:16:56.488Z,98.90
2018-05-27T07:19:25.082Z,98.60
2018-05-27T07:21:54.522Z,97.60
2018-05-27T07:24:23.201Z,97.60
2018-05-27T07:26:52.807Z,96.60
2018-05-27T07:29:21.377Z,96.90
2018-05-27T07:31:51.589Z,96.20
2018-05-27T07:34:20.213Z,96.10
2018-05-27T07:36:49.376Z,95.80
2018-05-27T07:39:18.019Z,95.40
2018-05-27T07:41:46.804Z,94.80
2018-05-27T07:44:15.675Z,93.70
2018-05-27T07:46:44.382Z,93.40
2018-05-27T07:49:13.790Z,93.60
2018-05-27T07:51:42.374Z,93.60
2018-05-27T07:54:10.956Z,93.30
2018-05-27T07:56:39.691Z,93.40
2018-05-27T07:59:09.335Z,93.20
2018-05-27T08:01:38.800Z,93.40
2018-05-27T08:04:07.530Z,93.40
2018-05-27T08:06:36.491Z,93.50
2018-05-27T08:09:05.183Z,93.80
2018-05-27T08:11:33.871Z,93.30
2018-05-27T08:14:02.455Z,93.60
2018-05-27T08:16:31.234Z,93.20
2018-05-27T08:19:00.074Z,92.70
2018-05-27T08:21:28.890Z,92.80
2018-05-27T08:23:57.728Z,92.50
2018-05-27T08:26:26.432Z,92.10
2018-05-27T08:28:55.000Z,91.30
2018-05-27T08:31:23.687Z,91.90
2018-05-27T08:33:52.378Z,91.50
2018-05-27T08:36:21.103Z,91.10
2018-05-27T08:38:49.794Z,90.50
2018-05-27T08:41:18.479Z,88.30
2018-05-27T08:43:47.205Z,88.70
2018-05-27T08:46:16.628Z,88.40
2018-05-27T08:48:45.902Z,88.40
2018-05-27T08:51:14.599Z,89.10
2018-05-27T08:53:43.982Z,86.80
2018-05-27T08:56:12.941Z,86.60
2018-05-27T08:58:42.467Z,85.60
2018-05-27T09:01:12.098Z,82.60
2018-05-27T09:03:40.873Z,82.50
2018-05-27T09:06:09.448Z,81.90
2018-05-27T09:08:38.245Z,80.20
2018-05-27T09:11:06.798Z,80.90
2018-05-27T09:13:35.419Z,80.70
2018-05-27T09:16:04.152Z,81.30
2018-05-27T09:18:32.640Z,79.90
2018-05-27T09:21:01.316Z,77.00
2018-05-27T09:23:30.204Z,76.40
2018-05-27T09:25:58.897Z,75.10
2018-05-27T09:28:27.640Z,73.60
2018-05-27T09:30:56.753Z,71.10
2018-05-27T09:33:25.626Z,71.50
2018-05-27T09:35:55.629Z,70.90
2018-05-27T09:38:24.336Z,70.80
2018-05-27T09:40:53.073Z,68.70
2018-05-27T09:43:21.502Z,68.30
2018-05-27T09:45:50.370Z,69.80
2018-05-27T09:48:19.179Z,66.50
2018-05-27T09:50:48.040Z,67.30
2018-05-27T09:53:16.530Z,66.50
2018-05-27T09:55:45.209Z,66.20
2018-05-27T09:58:13.959Z,67.80
2018-05-27T10:00:42.770Z,67.80
2018-05-27T10:03:11.481Z,69.30
2018-05-27T10:05:40.028Z,68.30
2018-05-27T10:08:08.873Z,66.90
2018-05-27T10:10:37.706Z,67.00
2018-05-27T10:13:06.506Z,67.20
2018-05-27T10:15:34.995Z,66.40
2018-05-27T10:18:04.594Z,63.50
2018-05-27T10:20:34.207Z,63.20
2018-05-27T10:23:02.923Z,63.20
2018-05-27T10:25:31.681Z,62.00
2018-05-27T10:28:00.762Z,61.40
2018-05-27T10:30:29.546Z,60.70
2018-05-27T10:32:58.380Z,60.30
2018-05-27T10:35:27.797Z,60.00
2018-05-27T10:37:56.432Z,60.00
2018-05-27T10:40:25.119Z,60.10
2018-05-27T10:42:53.900Z,61.20
2018-05-27T10:45:22.590Z,59.00
2018-05-27T10:47:51.221Z,59.30
2018-05-27T10:50:19.915Z,61.10
2018-05-27T10:52:48.654Z,60.50
2018-05-27T10:55:17.331Z,60.00
2018-05-27T10:57:46.018Z,61.20
2018-05-27T11:00:14.740Z,63.30
2018-05-27T11:02:43.527Z,63.90
2018-05-27T11:05:12.405Z,63.40
2018-05-27T11:07:42.432Z,64.70
2018-05-27T11:10:11.252Z,64.70
2018-05-27T11:12:40.117Z,65.80
2018-05-27T11:15:08.825Z,63.10
2018-05-27T11:17:37.516Z,62.00
2018-05-27T11:20:06.380Z,63.10
2018-05-27T11:22:34.992Z,63.40
2018-05-27T11:25:04.295Z,59.50
2018-05-27T11:27:32.777Z,60.40
2018-05-27T11:30:01.315Z,60.00
2018-05-27T11:32:30.316Z,61.10
2018-05-27T11:34:59.179Z,61.20
2018-05-27T11:37:27.726Z,60.50
2018-05-27T11:39:56.416Z,60.90
2018-05-27T11:42:25.278Z,61.70
2018-05-27T11:44:54.112Z,59.90
2018-05-27T11:47:22.548Z,58.90
2018-05-27T11:49:51.381Z,57.10
2018-05-27T11:52:20.075Z,59.30
2018-05-27T11:54:48.711Z,59.80
2018-05-27T11:57:17.287Z,60.00
2018-05-27T11:59:46.423Z,62.40
2018-05-27T12:02:15.049Z,62.70
2018-05-27T12:04:44.237Z,63.10
2018-05-27T12:07:14.047Z,63.90
2018-05-27T12:09:42.914Z,62.50
2018-05-27T12:12:11.460Z,61.80
2018-05-27T12:14:40.663Z,64.00
2018-05-27T12:17:09.380Z,64.00
2018-05-27T12:19:38.610Z,63.40
2018-05-27T12:22:07.247Z,63.20
2018-05-27T12:24:35.931Z,63.30
2018-05-27T12:27:04.508Z,63.80
2018-05-27T12:29:33.283Z,62.40
2018-05-27T12:32:02.182Z,61.60
2018-05-27T12:34:31.851Z,63.60
2018-05-27T12:37:01.407Z,65.50
2018-05-27T12:39:30.184Z,64.90
2018-05-27T12:41:58.981Z,63.70
2018-05-27T12:44:28.635Z,64.10
2018-05-27T12:46:57.472Z,64.00
2018-05-27T12:49:27.282Z,64.70
2018-05-27T12:51:56.032Z,64.80
2018-05-27T12:54:25.536Z,64.90
2018-05-27T12:56:54.313Z,65.50
2018-05-27T12:59:23.789Z,68.60
2018-05-27T13:01:52.619Z,68.60
2018-05-27T13:04:21.395Z,73.80
2018-05-27T13:06:49.952Z,72.60
2018-05-27T13:09:19.518Z,71.70
2018-05-27T13:11:48.269Z,71.10
2018-05-27T13:14:17.577Z,68.80
2018-05-27T13:16:46.346Z,68.80
2018-05-27T13:19:14.847Z,72.50
2018-05-27T13:21:43.587Z,70.30
2018-05-27T13:24:13.053Z,67.90
2018-05-27T13:26:41.843Z,67.90
2018-05-27T13:29:11.112Z,73.10
2018-05-27T13:31:39.983Z,70.50
2018-05-27T13:34:08.521Z,66.60
2018-05-27T13:36:37.706Z,72.00
2018-05-27T13:39:06.872Z,70.10
2018-05-27T13:41:35.703Z,65.70
2018-05-27T13:44:04.339Z,64.90
2018-05-27T13:46:33.565Z,66.10
2018-05-27T13:49:02.179Z,66.50
2018-05-27T13:51:30.747Z,65.00
2018-05-27T13:54:00.043Z,63.80
2018-05-27T13:56:28.892Z,63.60
2018-05-27T13:58:58.696Z,64.00
2018-05-27T14:01:27.542Z,64.00
2018-05-27T14:03:56.540Z,63.80
2018-05-27T14:06:25.328Z,61.70
2018-05-27T14:08:55.494Z,65.40
2018-05-27T14:11:24.247Z,65.20
2018-05-27T14:13:53.078Z,66.50
2018-05-27T14:16:22.105Z,65.10
2018-05-27T14:18:51.731Z,65.70
2018-05-27T14:21:21.002Z,65.80
2018-05-27T14:23:49.782Z,72.70
2018-05-27T14:26:18.468Z,73.70
2018-05-27T14:28:47.246Z,70.60
2018-05-27T14:31:15.949Z,68.80
2018-05-27T14:33:44.471Z,70.80
2018-05-27T14:36:13.358Z,71.50
2018-05-27T14:38:43.123Z,75.00
2018-05-27T14:41:11.891Z,75.00
2018-05-27T14:43:40.711Z,74.10
2018-05-27T14:46:10.217Z,71.90
2018-05-27T14:48:38.797Z,70.00
2018-05-27T14:51:07.530Z,68.80
2018-05-27T14:53:36.237Z,66.00
2018-05-27T14:56:04.948Z,66.20
2018-05-27T14:58:33.818Z,70.00
2018-05-27T15:01:02.510Z,70.50
2018-05-27T15:03:31.160Z,71.60
2018-05-27T15:05:59.855Z,73.30
2018-05-27T15:08:29.355Z,76.00
2018-05-27T15:10:58.182Z,76.00
2018-05-27T15:13:27.010Z,73.70
2018-05-27T15:15:55.699Z,75.00
2018-05-27T15:18:24.696Z,76.40
2018-05-27T15:20:53.510Z,74.70
2018-05-27T15:23:22.194Z,74.20
2018-05-27T15:25:51.170Z,75.30
2018-05-27T15:28:19.714Z,74.60
2018-05-27T15:30:48.437Z,78.20
2018-05-27T15:33:17.270Z,74.00
2018-05-27T15:35:45.835Z,74.50
2018-05-27T15:38:15.580Z,75.40
2018-05-27T15:40:44.358Z,75.40
2018-05-27T15:43:13.132Z,76.60
2018-05-27T15:45:41.896Z,76.60
2018-05-27T15:48:11.108Z,76.10
2018-05-27T15:50:39.696Z,74.70
2018-05-27T15:53:08.516Z,75.00
2018-05-27T15:55:37.207Z,76.50
2018-05-27T15:58:05.983Z,71.70
2018-05-27T16:00:34.815Z,63.80
2018-05-27T16:03:03.522Z,67.80
2018-05-27T16:05:32.087Z,62.10
2018-05-27T16:08:01.430Z,72.10
2018-05-27T16:10:31.133Z,79.30
2018-05-27T16:12:59.629Z,79.20
2018-05-27T16:15:28.358Z,83.40
2018-05-27T16:17:57.277Z,86.30
2018-05-27T16:20:27.559Z,88.70
2018-05-27T16:22:56.537Z,89.70
2018-05-27T16:25:25.303Z,90.70
2018-05-27T16:27:54.130Z,90.70
2018-05-27T16:30:23.513Z,91.60
2018-05-27T16:32:52.111Z,91.50
2018-05-27T16:35:21.587Z,92.70
2018-05-27T16:37:50.441Z,92.60
2018-05-27T16:40:19.990Z,92.80
2018-05-27T16:42:49.449Z,94.10
2018-05-27T16:45:18.116Z,94.10
2018-05-27T16:47:46.870Z,94.60
2018-05-27T16:50:16.375Z,95.50
2018-05-27T16:52:45.090Z,95.50
2018-05-27T16:55:13.762Z,95.00
2018-05-27T16:57:43.234Z,96.00
2018-05-27T17:00:12.107Z,95.90
2018-05-27T17:02:40.735Z,96.10
2018-05-27T17:05:09.417Z,96.20
2018-05-27T17:07:38.127Z,96.70
2018-05-27T17:10:07.492Z,95.80
2018-05-27T17:12:36.211Z,95.80
2018-05-27T17:15:04.953Z,95.90
2018-05-27T17:17:33.623Z,96.10
2018-05-27T17:20:03.337Z,96.10
2018-05-27T17:22:32.172Z,96.30
2018-05-27T17:25:01.199Z,97.90
2018-05-27T17:27:30.093Z,99.80
2018-05-27T17:29:58.870Z,99.90
2018-05-27T17:32:27.654Z,99.90
2018-05-27T17:34:56.527Z,99.90
2018-05-27T17:37:25.220Z,99.90
2018-05-27T17:39:54.010Z,99.90
2018-05-27T17:42:22.823Z,99.90
2018-05-27T17:44:51.655Z,99.90
2018-05-27T17:47:20.342Z,98.70
2018-05-27T17:49:48.995Z,98.50
2018-05-27T17:52:18.545Z,97.80
2018-05-27T17:54:47.280Z,97.10
2018-05-27T17:57:17.055Z,97.10
2018-05-27T17:59:46.025Z,97.10
2018-05-27T18:02:14.541Z,97.40
2018-05-27T18:04:43.434Z,98.70
2018-05-27T18:07:12.094Z,99.70
2018-05-27T18:09:40.957Z,99.90
2018-05-27T18:12:09.596Z,99.90
2018-05-27T18:14:39.212Z,99.90
2018-05-27T18:17:08.052Z,99.90
2018-05-27T18:19:36.884Z,99.90
2018-05-27T18:22:05.568Z,99.90
2018-05-27T18:24:34.213Z,99.90
2018-05-27T18:27:03.051Z,99.90
2018-05-27T18:29:31.728Z,99.90
2018-05-27T18:32:01.141Z,99.90
2018-05-27T18:34:29.867Z,99.90
2018-05-27T18:36:58.517Z,99.90
2018-05-27T18:39:28.123Z,99.90
2018-05-27T18:41:56.860Z,99.90
2018-05-27T18:44:25.592Z,99.90
2018-05-27T18:46:54.279Z,99.90
2018-05-27T18:49:22.766Z,99.90
2018-05-27T18:51:51.456Z,99.90
2018-05-27T18:54:20.137Z,99.90
2018-05-27T18:56:48.824Z,99.90
2018-05-27T18:59:18.131Z,99.90
2018-05-27T19:01:46.874Z,99.90
2018-05-27T19:04:15.507Z,99.90
2018-05-27T19:06:44.209Z,99.90
2018-05-27T19:09:12.974Z,99.90
2018-05-27T19:11:41.668Z,99.90
2018-05-27T19:14:10.261Z,99.90
2018-05-27T19:16:40.001Z,99.90
2018-05-27T19:19:08.849Z,99.90
2018-05-27T19:21:37.537Z,99.90
2018-05-27T19:24:06.230Z,99.90
2018-05-27T19:26:34.874Z,99.90
2018-05-27T19:29:04.239Z,99.90
2018-05-27T19:31:32.811Z,99.90
2018-05-27T19:34:01.639Z,99.90
2018-05-27T19:36:31.658Z,99.90
2018-05-27T19:39:01.268Z,99.90
2018-05-27T19:41:30.157Z,99.90
2018-05-27T19:43:58.796Z,99.90
2018-05-27T19:46:27.487Z,99.90
2018-05-27T19:48:56.331Z,99.90
2018-05-27T19:51:25.875Z,99.90
2018-05-27T19:53:54.522Z,99.90
2018-05-27T19:56:23.004Z,99.90
2018-05-27T19:58:51.848Z,99.90
2018-05-27T20:01:21.547Z,99.90
2018-05-27T20:03:50.231Z,99.90
2018-05-27T20:06:19.654Z,99.90
2018-05-27T20:08:48.299Z,99.90
2018-05-27T20:11:16.982Z,99.90
2018-05-27T20:13:45.488Z,99.90
2018-05-27T20:16:14.337Z,99.90
2018-05-27T20:18:43.032Z,99.90
2018-05-27T20:21:11.680Z,99.90
2018-05-27T20:23:40.422Z,99.90
2018-05-27T20:26:09.233Z,99.90
2018-05-27T20:28:37.883Z,99.90
2018-05-27T20:31:06.398Z,99.90
2018-05-27T20:33:35.189Z,99.90
2018-05-27T20:36:03.983Z,99.90
2018-05-27T20:38:32.842Z,99.90
2018-05-27T20:41:01.847Z,99.90
2018-05-27T20:43:30.703Z,99.90
2018-05-27T20:45:59.541Z,99.90
2018-05-27T20:48:28.369Z,99.90
2018-05-27T20:50:57.200Z,99.90
2018-05-27T20:53:25.829Z,99.90
2018-05-27T20:55:54.666Z,99.90
2018-05-27T20:58:23.498Z,99.90
2018-05-27T21:00:52.329Z,99.90
2018-05-27T21:03:20.965Z,99.90
2018-05-27T21:05:50.191Z,99.90
2018-05-27T21:08:18.890Z,99.90
2018-05-27T21:10:47.518Z,99.90
2018-05-27T21:13:16.466Z,99.90
2018-05-27T21:15:45.232Z,99.90
2018-05-27T21:18:13.958Z,99.90
2018-05-27T21:20:42.803Z,99.90
2018-05-27T21:23:11.485Z,99.90
2018-05-27T21:25:40.257Z,99.90
2018-05-27T21:28:08.946Z,99.90
2018-05-27T21:30:37.724Z,99.90
2018-05-27T21:33:06.556Z,99.90
2018-05-27T21:35:35.389Z,99.90
2018-05-27T21:38:04.540Z,99.90
2018-05-27T21:40:34.006Z,99.90
2018-05-27T21:43:02.876Z,99.90
2018-05-27T21:45:32.367Z,99.90
2018-05-27T21:48:01.180Z,99.90
2018-05-27T21:50:30.149Z,99.90
2018-05-27T21:52:58.901Z,99.90
2018-05-27T21:55:28.410Z,99.90
2018-05-27T21:57:57.098Z,99.90
2018-05-27T22:00:25.872Z,99.90
2018-05-27T22:02:54.572Z,99.90
2018-05-27T22:05:23.305Z,99.90
2018-05-27T22:07:52.098Z,99.90
2018-05-27T22:10:21.451Z,99.90
2018-05-27T22:12:50.137Z,99.90
2018-05-27T22:15:18.836Z,99.90
2018-05-27T22:17:47.696Z,99.90
2018-05-27T22:20:16.931Z,99.90
2018-05-27T22:22:45.756Z,99.90
2018-05-27T22:25:15.175Z,99.90
2018-05-27T22:27:43.720Z,99.90
2018-05-27T22:30:13.608Z,99.90
2018-05-27T22:32:42.458Z,99.90
2018-05-27T22:35:11.164Z,99.90
2018-05-27T22:37:39.923Z,99.90
2018-05-27T22:40:08.955Z,99.90
2018-05-27T22:42:37.657Z,99.90
2018-05-27T22:45:06.279Z,99.90
2018-05-27T22:47:34.834Z,99.90
2018-05-27T22:50:03.570Z,99.90
2018-05-27T22:52:32.287Z,99.90
2018-05-27T22:55:01.163Z,99.90
2018-05-27T22:57:29.970Z,99.90
2018-05-27T22:59:58.822Z,99.90
2018-05-27T23:02:27.663Z,99.90
2018-05-27T23:04:56.496Z,99.90
2018-05-27T23:07:25.891Z,99.90
2018-05-27T23:09:54.544Z,99.90
2018-05-27T23:12:23.899Z,99.90
2018-05-27T23:14:53.386Z,99.90
2018-05-27T23:17:23.006Z,99.90
2018-05-27T23:19:51.824Z,99.90
2018-05-27T23:22:20.335Z,99.90
2018-05-27T23:24:49.039Z,99.90
2018-05-27T23:27:18.402Z,99.90
2018-05-27T23:29:47.165Z,99.90
2018-05-27T23:32:15.701Z,99.90
2018-05-27T23:34:44.407Z,99.90
2018-05-27T23:37:13.273Z,99.90
2018-05-27T23:39:41.965Z,99.90
2018-05-27T23:42:10.738Z,99.90
2018-05-27T23:44:40.944Z,99.90
2018-05-27T23:47:09.638Z,99.90
2018-05-27T23:49:38.413Z,99.90
2018-05-27T23:52:07.107Z,99.90
2018-05-27T23:54:35.792Z,99.90
2018-05-27T23:57:04.438Z,99.90
2018-05-27T23:59:33.936Z,99.90
